createdAt,value
2022-11-01T00:02:02.994Z,13.19
2022-11-01T00:04:30.641Z,13.25
2022-11-01T00:06:58.276Z,13.28
2022-11-01T00:09:26.001Z,13.33
2022-11-01T00:11:53.678Z,13.35
2022-11-01T00:14:21.377Z,13.38
2022-11-01T00:16:49.435Z,13.42
2022-11-01T00:19:17.110Z,13.46
2022-11-01T00:21:44.628Z,13.52
2022-11-01T00:24:12.490Z,13.57
2022-11-01T00:26:40.108Z,13.57
2022-11-01T00:29:07.677Z,13.58
2022-11-01T00:31:35.294Z,13.61
2022-11-01T00:34:05.689Z,13.65
2022-11-01T00:36:37.232Z,13.71
2022-11-01T00:39:05.849Z,13.80
2022-11-01T00:41:33.359Z,13.88
2022-11-01T00:44:00.978Z,14.00
2022-11-01T00:46:28.477Z,14.02
2022-11-01T00:48:55.979Z,14.04
2022-11-01T00:51:23.583Z,14.04
2022-11-01T00:53:51.329Z,14.06
2022-11-01T00:56:19.116Z,14.06
2022-11-01T00:58:46.564Z,14.06
2022-11-01T01:01:14.140Z,13.99
2022-11-01T01:03:41.647Z,14.04
2022-11-01T01:06:09.138Z,14.03
2022-11-01T01:08:36.690Z,14.02
2022-11-01T01:11:04.185Z,14.01
2022-11-01T01:13:31.734Z,14.03
2022-11-01T01:15:59.230Z,14.03
2022-11-01T01:18:26.675Z,14.04
2022-11-01T01:21:01.589Z,14.03
2022-11-01T01:23:29.028Z,14.10
2022-11-01T01:25:56.582Z,14.11
2022-11-01T01:28:24.152Z,14.17
2022-11-01T01:30:51.734Z,14.20
2022-11-01T01:33:19.234Z,14.27
2022-11-01T01:35:46.709Z,14.37
2022-11-01T01:38:14.222Z,14.35
2022-11-01T01:40:41.889Z,14.43
2022-11-01T01:43:13.679Z,14.50
2022-11-01T01:45:42.789Z,14.56
2022-11-01T01:48:28.549Z,14.61
2022-11-01T01:51:00.739Z,14.62
2022-11-01T01:53:33.950Z,14.64
2022-11-01T01:56:08.001Z,14.77
2022-11-01T01:58:43.192Z,14.78
2022-11-01T02:01:10.813Z,14.81
2022-11-01T02:03:39.431Z,14.90
2022-11-01T02:06:11.971Z,14.95
2022-11-01T02:08:43.397Z,15.00
2022-11-01T02:11:12.247Z,15.04
2022-11-01T02:13:40.195Z,15.09
2022-11-01T02:16:22.551Z,15.13
2022-11-01T02:19:05.083Z,15.23
2022-11-01T02:21:44.380Z,15.25
2022-11-01T02:24:37.360Z,15.32
2022-11-01T02:27:33.309Z,15.36
2022-11-01T02:30:16.655Z,15.34
2022-11-01T02:33:06.237Z,15.38
2022-11-01T02:35:33.684Z,15.36
2022-11-01T02:38:19.622Z,15.38
2022-11-01T02:41:03.154Z,15.38
2022-11-01T02:43:40.899Z,15.43
2022-11-01T02:46:23.957Z,15.41
2022-11-01T02:48:52.044Z,15.49
2022-11-01T02:51:23.238Z,15.51
2022-11-01T02:53:50.764Z,15.51
2022-11-01T02:56:19.590Z,15.48
2022-11-01T02:58:49.259Z,15.52
2022-11-01T03:01:25.010Z,15.46
2022-11-01T03:03:57.136Z,15.53
2022-11-01T03:06:24.565Z,15.52
2022-11-01T03:09:05.530Z,15.49
2022-11-01T03:11:56.205Z,15.49
2022-11-01T03:14:45.420Z,15.43
2022-11-01T03:17:36.546Z,15.47
2022-11-01T03:20:13.213Z,15.47
2022-11-01T03:22:55.594Z,15.46
2022-11-01T03:25:40.042Z,15.52
2022-11-01T03:28:16.237Z,15.50
2022-11-01T03:30:49.105Z,15.39
2022-11-01T03:33:17.919Z,15.40
2022-11-01T03:35:48.932Z,15.33
2022-11-01T03:38:25.416Z,15.27
2022-11-01T03:41:02.380Z,15.16
2022-11-01T03:43:32.348Z,15.13
2022-11-01T03:45:59.925Z,15.08
2022-11-01T03:48:27.472Z,15.03
2022-11-01T03:50:57.063Z,14.94
2022-11-01T03:53:25.706Z,14.84
2022-11-01T03:55:53.678Z,14.68
2022-11-01T03:58:21.237Z,14.65
2022-11-01T04:00:48.754Z,14.55
2022-11-01T04:03:16.232Z,14.54
2022-11-01T04:05:44.340Z,14.46
2022-11-01T04:08:12.641Z,14.41
2022-11-01T04:10:40.200Z,14.39
2022-11-01T04:13:07.659Z,14.35
2022-11-01T04:15:52.546Z,14.32
2022-11-01T04:21:15.551Z,14.21
2022-11-01T04:23:44.749Z,14.13
2022-11-01T04:26:14.705Z,14.12
2022-11-01T04:28:44.789Z,14.03
2022-11-01T04:31:12.338Z,14.01
2022-11-01T04:33:39.787Z,14.02
2022-11-01T04:36:07.902Z,14.00
2022-11-01T04:38:35.464Z,13.97
2022-11-01T04:41:02.933Z,13.89
2022-11-01T04:43:30.403Z,13.83
2022-11-01T04:45:58.459Z,13.79
2022-11-01T04:48:26.414Z,13.72
2022-11-01T04:50:53.992Z,13.66
2022-11-01T04:53:21.447Z,13.75
2022-11-01T04:55:48.896Z,13.77
2022-11-01T04:58:16.335Z,13.72
2022-11-01T05:00:44.143Z,13.66
2022-11-01T05:03:12.427Z,13.59
2022-11-01T05:05:40.019Z,13.50
2022-11-01T05:08:10.380Z,13.45
2022-11-01T05:10:43.320Z,13.38
2022-11-01T05:13:12.202Z,13.30
2022-11-01T05:15:47.971Z,13.27
2022-11-01T05:18:20.956Z,13.25
2022-11-01T05:20:48.396Z,13.26
2022-11-01T05:23:15.876Z,13.21
2022-11-01T05:25:43.606Z,13.15
2022-11-01T05:28:14.463Z,13.15
2022-11-01T05:30:42.991Z,13.10
2022-11-01T05:33:12.396Z,13.09
2022-11-01T05:35:39.922Z,13.15
2022-11-01T05:38:07.420Z,13.11
2022-11-01T05:40:35.202Z,13.10
2022-11-01T05:43:03.152Z,13.02
2022-11-01T05:45:30.929Z,13.03
2022-11-01T05:48:03.055Z,13.06
2022-11-01T05:50:30.535Z,13.05
2022-11-01T05:53:05.999Z,12.93
2022-11-01T05:55:33.499Z,13.08
2022-11-01T05:58:00.969Z,13.03
2022-11-01T06:00:28.460Z,12.98
2022-11-01T06:02:59.468Z,12.96
2022-11-01T06:05:28.574Z,13.07
2022-11-01T06:07:56.046Z,13.11
2022-11-01T06:10:23.623Z,13.05
2022-11-01T06:12:51.117Z,13.03
2022-11-01T06:15:19.062Z,13.03
2022-11-01T06:17:46.650Z,12.97
2022-11-01T06:20:14.644Z,12.98
2022-11-01T06:22:42.120Z,12.98
2022-11-01T06:25:09.685Z,12.86
2022-11-01T06:27:37.184Z,12.90
2022-11-01T06:30:05.480Z,12.86
2022-11-01T06:32:33.001Z,12.85
2022-11-01T06:35:00.576Z,12.87
2022-11-01T06:37:28.114Z,12.91
2022-11-01T06:39:56.763Z,12.88
2022-11-01T06:42:24.296Z,12.81
2022-11-01T06:44:52.092Z,12.81
2022-11-01T06:47:19.592Z,12.75
2022-11-01T06:49:47.255Z,12.72
2022-11-01T06:52:14.800Z,12.71
2022-11-01T06:54:42.241Z,12.68
2022-11-01T06:57:09.739Z,12.61
2022-11-01T06:59:37.172Z,12.57
2022-11-01T07:02:05.009Z,12.56
2022-11-01T07:04:32.690Z,12.52
2022-11-01T07:07:00.190Z,12.50
2022-11-01T07:09:27.671Z,12.50
2022-11-01T07:11:55.147Z,12.47
2022-11-01T07:14:22.651Z,12.46
2022-11-01T07:16:50.142Z,12.47
2022-11-01T07:19:17.557Z,12.44
2022-11-01T07:21:45.010Z,12.42
2022-11-01T07:24:12.498Z,12.45
2022-11-01T07:26:39.951Z,12.49
2022-11-01T07:29:07.486Z,12.50
2022-11-01T07:31:35.108Z,12.50
2022-11-01T07:34:03.030Z,12.50
2022-11-01T07:36:30.543Z,12.49
2022-11-01T07:38:58.084Z,12.50
2022-11-01T07:41:25.578Z,12.50
2022-11-01T07:43:54.162Z,12.52
2022-11-01T07:46:21.621Z,12.48
2022-11-01T07:48:50.954Z,12.55
2022-11-01T07:51:19.047Z,12.53
2022-11-01T07:53:46.569Z,12.56
2022-11-01T07:56:14.217Z,12.57
2022-11-01T07:58:43.411Z,12.57
2022-11-01T08:01:11.814Z,12.59
2022-11-01T08:03:39.595Z,12.62
2022-11-01T08:06:07.274Z,12.59
2022-11-01T08:08:34.843Z,12.64
2022-11-01T08:11:02.716Z,12.64
2022-11-01T08:13:30.685Z,12.67
2022-11-01T08:16:02.428Z,12.68
2022-11-01T08:18:31.026Z,12.68
2022-11-01T08:20:59.804Z,12.65
2022-11-01T08:23:27.412Z,12.70
2022-11-01T08:25:54.892Z,12.74
2022-11-01T08:28:22.670Z,12.82
2022-11-01T08:30:51.020Z,12.80
2022-11-01T08:33:18.499Z,12.78
2022-11-01T08:35:50.416Z,12.88
2022-11-01T08:38:18.414Z,12.87
2022-11-01T08:40:45.940Z,12.86
2022-11-01T08:43:13.391Z,12.92
2022-11-01T08:45:40.912Z,12.94
2022-11-01T08:48:09.593Z,12.96
2022-11-01T08:50:37.060Z,13.01
2022-11-01T08:53:16.118Z,12.92
2022-11-01T08:55:43.691Z,12.93
2022-11-01T08:58:11.236Z,13.01
2022-11-01T09:00:38.831Z,13.07
2022-11-01T09:03:06.387Z,13.23
2022-11-01T09:05:34.417Z,13.04
2022-11-01T09:08:02.893Z,13.12
2022-11-01T09:10:32.140Z,13.15
2022-11-01T09:13:01.426Z,13.19
2022-11-01T09:15:29.359Z,13.28
2022-11-01T09:17:56.821Z,13.28
2022-11-01T09:20:24.767Z,13.31
2022-11-01T09:22:53.097Z,13.44
2022-11-01T09:25:20.646Z,13.47
2022-11-01T09:27:48.151Z,13.67
2022-11-01T09:30:15.944Z,13.74
2022-11-01T09:32:43.447Z,13.86
2022-11-01T09:35:10.932Z,13.98
2022-11-01T09:37:38.514Z,14.23
2022-11-01T09:40:06.663Z,14.03
2022-11-01T09:42:43.858Z,14.10
2022-11-01T09:45:22.692Z,14.32
2022-11-01T09:47:58.507Z,14.56
2022-11-01T09:50:37.701Z,14.73
2022-11-01T09:53:14.239Z,15.05
2022-11-01T09:55:49.049Z,14.72
2022-11-01T09:58:28.213Z,15.06
2022-11-01T10:01:38.861Z,14.88
2022-11-01T10:04:22.360Z,15.01
2022-11-01T10:07:00.197Z,15.13
2022-11-01T10:09:41.544Z,15.30
2022-11-01T10:12:47.697Z,15.34
2022-11-01T10:15:32.083Z,15.31
2022-11-01T10:18:14.489Z,15.32
2022-11-01T10:20:42.554Z,15.27
2022-11-01T10:23:17.011Z,15.42
2022-11-01T10:25:52.867Z,15.60
2022-11-01T10:28:55.323Z,15.72
2022-11-01T10:31:25.868Z,15.44
2022-11-01T10:34:17.798Z,15.62
2022-11-01T10:36:46.910Z,15.68
2022-11-01T10:39:54.932Z,15.85
2022-11-01T10:42:20.854Z,15.96
2022-11-01T10:44:55.374Z,15.99
2022-11-01T10:47:25.255Z,15.91
2022-11-01T10:50:06.428Z,15.81
2022-11-01T10:53:00.859Z,15.77
2022-11-01T10:55:35.914Z,16.06
2022-11-01T10:58:15.460Z,16.08
2022-11-01T11:00:44.062Z,16.44
2022-11-01T11:03:20.451Z,16.19
2022-11-01T11:05:50.503Z,16.44
2022-11-01T11:08:20.186Z,16.56
2022-11-01T11:10:48.389Z,16.58
2022-11-01T11:13:20.710Z,16.59
2022-11-01T11:16:00.422Z,16.71
2022-11-01T11:18:38.417Z,16.36
2022-11-01T11:21:12.095Z,16.27
2022-11-01T11:23:46.435Z,16.20
2022-11-01T11:26:18.134Z,16.35
2022-11-01T11:28:52.443Z,16.38
2022-11-01T11:31:27.544Z,16.61
2022-11-01T11:34:02.075Z,16.64
2022-11-01T11:36:35.050Z,16.43
2022-11-01T11:39:03.709Z,16.35
2022-11-01T11:41:35.275Z,16.54
2022-11-01T11:44:03.697Z,16.54
2022-11-01T11:46:31.287Z,16.65
2022-11-01T11:49:02.762Z,16.63
2022-11-01T11:51:33.557Z,16.82
2022-11-01T11:54:21.727Z,16.66
2022-11-01T11:56:52.862Z,16.73
2022-11-01T11:59:29.288Z,16.96
2022-11-01T12:02:02.572Z,17.10
2022-11-01T12:04:40.355Z,16.93
2022-11-01T12:07:11.288Z,17.16
2022-11-01T12:09:38.702Z,17.32
2022-11-01T12:12:30.599Z,17.02
2022-11-01T12:14:59.237Z,17.15
2022-11-01T12:17:32.939Z,16.76
2022-11-01T12:20:13.494Z,16.96
2022-11-01T12:22:46.407Z,16.88
2022-11-01T12:25:22.419Z,16.84
2022-11-01T12:27:55.412Z,16.88
2022-11-01T12:30:25.721Z,16.55
2022-11-01T12:32:59.075Z,16.61
2022-11-01T12:35:34.396Z,16.58
2022-11-01T12:38:23.005Z,16.62
2022-11-01T12:40:53.539Z,16.51
2022-11-01T12:43:29.640Z,16.80
2022-11-01T12:46:11.723Z,16.60
2022-11-01T12:49:10.021Z,16.65
2022-11-01T12:51:45.590Z,16.76
2022-11-01T12:54:19.843Z,16.80
2022-11-01T12:56:47.344Z,16.88
2022-11-01T12:59:20.113Z,17.07
2022-11-01T13:01:55.537Z,16.77
2022-11-01T13:04:46.069Z,16.78
2022-11-01T13:07:26.033Z,16.90
2022-11-01T13:10:16.904Z,16.98
2022-11-01T13:13:14.388Z,17.02
2022-11-01T13:16:12.297Z,17.04
2022-11-01T13:18:55.520Z,16.89
2022-11-01T13:21:44.997Z,16.99
2022-11-01T13:24:30.521Z,17.26
2022-11-01T13:27:23.082Z,17.48
2022-11-01T13:29:54.064Z,17.40
2022-11-01T13:32:44.604Z,17.64
2022-11-01T13:35:46.001Z,17.57
2022-11-01T13:38:25.800Z,18.00
2022-11-01T13:41:19.754Z,17.90
2022-11-01T13:44:04.110Z,18.09
2022-11-01T13:46:37.574Z,17.91
2022-11-01T13:49:10.815Z,17.66
2022-11-01T13:52:23.285Z,17.25
2022-11-01T13:55:14.952Z,17.13
2022-11-01T13:57:45.090Z,16.77
2022-11-01T14:00:37.743Z,16.41
2022-11-01T14:03:25.114Z,16.36
2022-11-01T14:06:11.586Z,16.31
2022-11-01T14:08:41.074Z,16.39
2022-11-01T14:11:12.893Z,16.23
2022-11-01T14:13:45.909Z,16.12
2022-11-01T14:16:16.311Z,16.06
2022-11-01T14:19:03.021Z,16.01
2022-11-01T14:21:50.315Z,16.11
2022-11-01T14:24:24.251Z,16.08
2022-11-01T14:27:02.253Z,15.93
2022-11-01T14:29:31.012Z,15.90
2022-11-01T14:32:00.097Z,15.83
2022-11-01T14:34:33.000Z,15.79
2022-11-01T14:37:07.309Z,15.84
2022-11-01T14:39:59.445Z,15.85
2022-11-01T14:42:36.243Z,15.77
2022-11-01T14:45:11.757Z,15.91
2022-11-01T14:47:43.239Z,15.87
2022-11-01T14:50:30.436Z,15.92
2022-11-01T14:53:07.815Z,15.85
2022-11-01T14:55:38.532Z,15.93
2022-11-01T14:58:24.823Z,15.91
2022-11-01T15:00:55.410Z,15.78
2022-11-01T15:03:23.832Z,15.71
2022-11-01T15:05:53.425Z,15.64
2022-11-01T15:08:31.137Z,15.57
2022-11-01T15:11:02.562Z,15.54
2022-11-01T15:13:33.730Z,15.52
2022-11-01T15:16:13.371Z,15.44
2022-11-01T15:18:51.872Z,15.44
2022-11-01T15:21:25.562Z,15.40
2022-11-01T15:23:58.494Z,15.34
2022-11-01T15:26:31.162Z,15.29
2022-11-01T15:29:01.356Z,15.23
2022-11-01T15:31:30.312Z,15.25
2022-11-01T15:34:03.998Z,15.31
2022-11-01T15:36:36.512Z,15.31
2022-11-01T15:39:17.466Z,15.27
2022-11-01T15:41:44.966Z,15.28
2022-11-01T15:44:27.289Z,15.33
2022-11-01T15:46:58.302Z,15.34
2022-11-01T15:49:53.926Z,15.25
2022-11-01T15:52:29.599Z,15.23
2022-11-01T15:55:19.172Z,15.14
2022-11-01T15:58:04.689Z,15.10
2022-11-01T16:00:42.261Z,14.99
2022-11-01T16:03:19.953Z,14.91
2022-11-01T16:06:02.172Z,14.84
2022-11-01T16:08:34.114Z,14.79
2022-11-01T16:11:02.004Z,14.68
2022-11-01T16:13:32.409Z,14.65
2022-11-01T16:16:08.160Z,14.51
2022-11-01T16:18:37.939Z,14.53
2022-11-01T16:21:25.459Z,14.53
2022-11-01T16:24:15.503Z,14.46
2022-11-01T16:27:01.340Z,14.47
2022-11-01T16:29:44.253Z,14.41
2022-11-01T16:32:23.844Z,14.42
2022-11-01T16:34:51.912Z,14.46
2022-11-01T16:37:27.969Z,14.47
2022-11-01T16:39:55.788Z,14.54
2022-11-01T16:42:24.529Z,14.55
2022-11-01T16:44:59.364Z,14.55
2022-11-01T16:47:26.879Z,14.63
2022-11-01T16:49:55.279Z,14.63
2022-11-01T16:52:22.958Z,14.63
2022-11-01T16:54:51.925Z,14.66
2022-11-01T16:57:25.676Z,14.65
2022-11-01T16:59:54.566Z,14.66
2022-11-01T17:02:25.568Z,14.69
2022-11-01T17:05:08.737Z,14.69
2022-11-01T17:07:36.764Z,14.70
2022-11-01T17:10:22.365Z,14.72
2022-11-01T17:12:49.911Z,14.72
2022-11-01T17:15:17.595Z,14.70
2022-11-01T17:17:48.316Z,14.71
2022-11-01T17:20:27.454Z,14.66
2022-11-01T17:22:56.878Z,14.67
2022-11-01T17:25:28.832Z,14.67
2022-11-01T17:27:56.675Z,14.67
2022-11-01T17:30:24.253Z,14.63
2022-11-01T17:32:51.740Z,14.69
2022-11-01T17:35:21.552Z,14.68
2022-11-01T17:37:51.891Z,14.70
2022-11-01T17:40:23.812Z,14.69
2022-11-01T17:42:51.277Z,14.70
2022-11-01T17:45:19.014Z,14.70
2022-11-01T17:47:46.751Z,14.65
2022-11-01T17:50:15.618Z,14.62
2022-11-01T17:52:44.042Z,14.62
2022-11-01T17:55:13.737Z,14.62
2022-11-01T17:57:43.419Z,14.58
2022-11-01T18:00:11.821Z,14.56
2022-11-01T18:02:39.309Z,14.57
2022-11-01T18:05:08.593Z,14.50
2022-11-01T18:07:40.413Z,14.52
2022-11-01T18:10:20.372Z,14.49
2022-11-01T18:13:09.432Z,14.44
2022-11-01T18:15:47.984Z,14.39
2022-11-01T18:18:37.142Z,14.39
2022-11-01T18:21:27.372Z,14.33
2022-11-01T18:23:56.510Z,14.36
2022-11-01T18:26:28.765Z,14.37
2022-11-01T18:28:59.419Z,14.38
2022-11-01T18:31:35.103Z,14.30
2022-11-01T18:34:08.497Z,14.33
2022-11-01T18:36:52.229Z,14.27
2022-11-01T18:39:36.463Z,14.22
2022-11-01T18:42:07.617Z,14.28
2022-11-01T18:44:35.198Z,14.31
2022-11-01T18:47:16.702Z,14.32
2022-11-01T18:49:44.162Z,14.33
2022-11-01T18:52:18.067Z,14.39
2022-11-01T18:54:56.936Z,14.36
2022-11-01T18:57:25.107Z,14.27
2022-11-01T18:59:54.427Z,14.24
2022-11-01T19:02:28.292Z,14.21
2022-11-01T19:05:24.735Z,14.22
2022-11-01T19:08:20.277Z,14.24
2022-11-01T19:10:45.316Z,14.27
2022-11-01T19:13:19.484Z,14.25
2022-11-01T19:15:51.645Z,14.28
2022-11-01T19:18:23.721Z,14.28
2022-11-01T19:20:56.483Z,14.31
2022-11-01T19:23:41.486Z,14.33
2022-11-01T19:26:40.117Z,14.39
2022-11-01T19:29:19.302Z,14.39
2022-11-01T19:31:48.503Z,14.43
2022-11-01T19:34:21.540Z,14.45
2022-11-01T19:36:49.688Z,14.43
2022-11-01T19:39:22.512Z,14.43
2022-11-01T19:41:50.182Z,14.41
2022-11-01T19:44:24.222Z,14.44
2022-11-01T19:46:59.832Z,14.37
2022-11-01T19:49:34.092Z,14.40
2022-11-01T19:52:10.753Z,14.40
2022-11-01T19:54:41.399Z,14.38
2022-11-01T19:57:31.936Z,14.31
2022-11-01T20:00:17.055Z,14.23
2022-11-01T20:02:44.628Z,14.16
2022-11-01T20:05:41.835Z,14.14
2022-11-01T20:08:24.724Z,14.12
2022-11-01T20:10:52.206Z,14.09
2022-11-01T20:13:19.886Z,14.11
2022-11-01T20:15:48.027Z,14.12
2022-11-01T20:18:15.528Z,14.12
2022-11-01T20:20:43.878Z,14.11
2022-11-01T20:23:25.985Z,14.09
2022-11-01T20:25:54.031Z,14.01
2022-11-01T20:28:21.732Z,13.96
2022-11-01T20:30:49.235Z,13.89
2022-11-01T20:33:16.895Z,13.74
2022-11-01T20:35:44.439Z,13.72
2022-11-01T20:38:11.986Z,13.57
2022-11-01T20:40:39.812Z,13.44
2022-11-01T20:43:07.445Z,13.35
2022-11-01T20:45:35.447Z,13.29
2022-11-01T20:48:03.893Z,13.20
2022-11-01T20:50:31.617Z,13.13
2022-11-01T20:52:59.142Z,12.98
2022-11-01T20:55:27.844Z,12.85
2022-11-01T20:57:55.302Z,12.73
2022-11-01T21:00:22.873Z,12.67
2022-11-01T21:02:50.617Z,12.50
2022-11-01T21:05:29.193Z,12.51
2022-11-01T21:08:08.698Z,12.40
2022-11-01T21:10:39.919Z,12.40
2022-11-01T21:13:23.322Z,12.33
2022-11-01T21:15:51.941Z,12.27
2022-11-01T21:18:19.341Z,12.27
2022-11-01T21:20:48.594Z,12.24
2022-11-01T21:23:35.409Z,12.23
2022-11-01T21:26:13.172Z,12.24
2022-11-01T21:28:44.697Z,12.31
2022-11-01T21:31:12.103Z,12.35
2022-11-01T21:33:52.491Z,12.38
2022-11-01T21:36:19.880Z,12.35
2022-11-01T21:38:53.521Z,12.27
2022-11-01T21:41:32.584Z,12.21
2022-11-01T21:44:15.120Z,12.12
2022-11-01T21:46:46.964Z,12.03
2022-11-01T21:49:30.993Z,12.00
2022-11-01T21:52:03.664Z,11.94
2022-11-01T21:54:34.118Z,11.90
2022-11-01T21:57:01.808Z,11.87
2022-11-01T21:59:29.947Z,11.84
2022-11-01T22:01:58.434Z,11.80
2022-11-01T22:04:28.631Z,11.72
2022-11-01T22:06:56.443Z,11.67
2022-11-01T22:09:24.356Z,11.58
2022-11-01T22:11:52.415Z,11.57
2022-11-01T22:14:20.676Z,11.45
2022-11-01T22:16:48.317Z,11.37
2022-11-01T22:19:18.777Z,11.35
2022-11-01T22:24:18.560Z,11.24
2022-11-01T22:26:46.031Z,11.22
2022-11-01T22:29:13.527Z,11.19
2022-11-01T22:31:40.984Z,11.19
2022-11-01T22:34:09.106Z,11.18
2022-11-01T22:36:37.915Z,11.17
2022-11-01T22:39:26.046Z,11.22
2022-11-01T22:41:54.064Z,11.13
2022-11-01T22:44:27.931Z,11.11
2022-11-01T22:47:01.443Z,11.13
2022-11-01T22:49:41.631Z,11.16
2022-11-01T22:52:34.479Z,11.17
2022-11-01T22:55:20.212Z,11.15
2022-11-01T22:58:19.773Z,11.18
2022-11-01T23:00:47.644Z,11.23
2022-11-01T23:03:15.018Z,11.28
2022-11-01T23:05:43.028Z,11.29
2022-11-01T23:08:34.859Z,11.32
2022-11-01T23:11:03.073Z,11.35
2022-11-01T23:13:55.296Z,11.39
2022-11-01T23:16:27.339Z,11.45
2022-11-01T23:18:59.080Z,11.48
2022-11-01T23:21:28.506Z,11.49
2022-11-01T23:23:56.352Z,11.56
2022-11-01T23:26:25.222Z,11.57
2022-11-01T23:28:55.720Z,11.54
2022-11-01T23:31:25.450Z,11.52
2022-11-01T23:33:52.912Z,11.49
2022-11-01T23:36:35.110Z,11.45
2022-11-01T23:39:11.623Z,11.48
2022-11-01T23:41:42.766Z,11.44
2022-11-01T23:44:27.832Z,11.44
2022-11-01T23:47:03.681Z,11.47
2022-11-01T23:49:34.066Z,11.47
2022-11-01T23:52:01.567Z,11.46
2022-11-01T23:54:42.037Z,11.44
2022-11-01T23:57:19.499Z,11.42
2022-11-01T23:59:48.955Z,11.43
